createdAt,value
2023-04-26T00:00:10.065Z,14.27
2023-04-26T00:02:38.620Z,14.30
2023-04-26T00:05:09.587Z,14.30
2023-04-26T00:07:39.569Z,14.30
2023-04-26T00:10:09.690Z,14.29
2023-04-26T00:12:38.585Z,14.25
2023-04-26T00:15:08.712Z,14.20
2023-04-26T00:17:37.661Z,14.14
2023-04-26T00:20:11.760Z,14.08
2023-04-26T00:22:41.836Z,14.01
2023-04-26T00:25:12.605Z,13.97
2023-04-26T00:27:40.970Z,13.91
2023-04-26T00:30:11.347Z,13.87
2023-04-26T00:32:39.895Z,13.82
2023-04-26T00:35:12.427Z,13.79
2023-04-26T00:37:42.399Z,13.76
2023-04-26T00:40:12.672Z,13.74
2023-04-26T00:42:41.462Z,13.73
2023-04-26T00:45:10.863Z,13.74
2023-04-26T00:47:39.545Z,13.74
2023-04-26T00:50:10.713Z,13.74
2023-04-26T00:52:39.958Z,13.73
2023-04-26T00:55:11.468Z,13.71
2023-04-26T00:57:41.135Z,13.72
2023-04-26T01:00:12.232Z,13.73
2023-04-26T01:02:41.684Z,13.76
2023-04-26T01:05:11.216Z,13.80
2023-04-26T01:07:39.909Z,13.82
2023-04-26T01:10:11.269Z,13.83
2023-04-26T01:12:40.331Z,13.87
2023-04-26T01:15:10.863Z,13.90
2023-04-26T01:17:39.823Z,13.91
2023-04-26T01:20:12.228Z,13.93
2023-04-26T01:22:42.751Z,13.93
2023-04-26T01:25:13.798Z,13.92
2023-04-26T01:27:42.227Z,13.93
2023-04-26T01:30:11.769Z,13.94
2023-04-26T01:32:40.435Z,13.94
2023-04-26T01:35:09.766Z,13.97
2023-04-26T01:37:38.187Z,13.99
2023-04-26T01:40:10.605Z,13.99
2023-04-26T01:42:39.041Z,14.00
2023-04-26T01:45:08.902Z,14.01
2023-04-26T01:47:37.467Z,14.02
2023-04-26T01:50:07.716Z,14.02
2023-04-26T01:52:36.328Z,14.05
2023-04-26T01:55:05.422Z,14.05
2023-04-26T01:57:35.220Z,14.04
2023-04-26T02:00:04.946Z,14.03
2023-04-26T02:02:33.365Z,14.01
2023-04-26T02:05:01.865Z,13.95
2023-04-26T02:07:30.879Z,13.89
2023-04-26T02:09:59.215Z,13.79
2023-04-26T02:12:27.837Z,13.70
2023-04-26T02:14:57.815Z,13.61
2023-04-26T02:17:29.329Z,13.53
2023-04-26T02:19:57.784Z,13.46
2023-04-26T02:22:26.780Z,13.38
2023-04-26T02:24:55.373Z,13.29
2023-04-26T02:27:23.781Z,13.24
2023-04-26T02:29:52.130Z,13.16
2023-04-26T02:32:21.973Z,13.11
2023-04-26T02:34:50.718Z,13.06
2023-04-26T02:37:19.205Z,13.00
2023-04-26T02:39:52.162Z,12.95
2023-04-26T02:42:20.561Z,12.90
2023-04-26T02:44:48.974Z,12.85
2023-04-26T02:47:17.518Z,12.81
2023-04-26T02:49:47.252Z,12.78
2023-04-26T02:52:15.634Z,12.73
2023-04-26T02:54:44.023Z,12.69
2023-04-26T02:57:12.597Z,12.65
2023-04-26T02:59:41.023Z,12.61
2023-04-26T03:02:09.494Z,12.59
2023-04-26T03:04:38.406Z,12.55
2023-04-26T03:07:08.205Z,12.52
2023-04-26T03:09:38.251Z,12.48
2023-04-26T03:12:08.029Z,12.47
2023-04-26T03:14:36.624Z,12.43
2023-04-26T03:17:05.085Z,12.41
2023-04-26T03:19:33.668Z,12.36
2023-04-26T03:22:02.064Z,12.36
2023-04-26T03:24:31.847Z,12.31
2023-04-26T03:27:00.271Z,12.29
2023-04-26T03:29:28.836Z,12.26
2023-04-26T03:31:57.980Z,12.24
2023-04-26T03:34:27.452Z,12.22
2023-04-26T03:36:56.019Z,12.22
2023-04-26T03:39:24.406Z,12.20
2023-04-26T03:41:54.208Z,12.19
2023-04-26T03:44:22.937Z,12.18
2023-04-26T03:46:51.343Z,12.16
2023-04-26T03:49:19.742Z,12.16
2023-04-26T03:51:48.134Z,12.15
2023-04-26T03:54:16.845Z,12.14
2023-04-26T03:56:45.234Z,12.15
2023-04-26T03:59:15.139Z,12.17
2023-04-26T04:01:43.507Z,12.18
2023-04-26T04:04:12.188Z,12.21
2023-04-26T04:06:40.816Z,12.20
2023-04-26T04:09:09.263Z,12.21
2023-04-26T04:11:37.685Z,12.21
2023-04-26T04:14:06.177Z,12.24
2023-04-26T04:16:35.948Z,12.26
2023-04-26T04:19:05.207Z,12.26
2023-04-26T04:21:33.731Z,12.27
2023-04-26T04:24:03.465Z,12.27
2023-04-26T04:26:31.832Z,12.28
2023-04-26T04:29:08.710Z,12.29
2023-04-26T04:31:40.177Z,12.28
2023-04-26T04:34:08.836Z,12.30
2023-04-26T04:36:38.780Z,12.31
2023-04-26T04:39:12.522Z,12.33
2023-04-26T04:41:47.652Z,12.35
2023-04-26T04:44:16.893Z,12.35
2023-04-26T04:46:47.111Z,12.35
2023-04-26T04:49:15.941Z,12.35
2023-04-26T04:51:44.378Z,12.37
2023-04-26T04:54:13.642Z,12.39
2023-04-26T04:56:42.669Z,12.40
2023-04-26T04:59:11.581Z,12.42
2023-04-26T05:01:40.031Z,12.45
2023-04-26T05:04:10.028Z,12.49
2023-04-26T05:06:38.847Z,12.51
2023-04-26T05:09:07.238Z,12.55
2023-04-26T05:11:35.749Z,12.59
2023-04-26T05:14:04.214Z,12.64
2023-04-26T05:16:32.867Z,12.71
2023-04-26T05:19:01.261Z,12.78
2023-04-26T05:21:31.645Z,12.85
2023-04-26T05:24:00.005Z,12.92
2023-04-26T05:26:28.536Z,12.99
2023-04-26T05:28:57.084Z,13.04
2023-04-26T05:31:26.166Z,13.10
2023-04-26T05:33:54.814Z,13.17
2023-04-26T05:36:23.327Z,13.24
2023-04-26T05:38:53.112Z,13.30
2023-04-26T05:41:21.516Z,13.38
2023-04-26T05:43:49.996Z,13.50
2023-04-26T05:46:18.444Z,13.67
2023-04-26T05:48:47.000Z,13.84
2023-04-26T05:51:16.068Z,14.02
2023-04-26T05:53:44.443Z,14.13
2023-04-26T05:56:14.248Z,14.19
2023-04-26T05:58:42.610Z,14.23
2023-04-26T06:01:12.407Z,14.25
2023-04-26T06:03:41.029Z,14.27
2023-04-26T06:06:09.659Z,14.28
2023-04-26T06:08:38.506Z,14.30
2023-04-26T06:11:07.062Z,14.36
2023-04-26T06:13:36.784Z,14.43
2023-04-26T06:16:05.902Z,14.51
2023-04-26T06:18:34.276Z,14.60
2023-04-26T06:21:02.755Z,14.67
2023-04-26T06:23:31.180Z,14.75
2023-04-26T06:25:59.534Z,14.86
2023-04-26T06:28:28.158Z,14.97
2023-04-26T06:30:57.998Z,15.04
2023-04-26T06:33:26.427Z,15.11
2023-04-26T06:35:54.784Z,15.17
2023-04-26T06:38:23.125Z,15.24
2023-04-26T06:40:51.545Z,15.30
2023-04-26T06:43:19.982Z,15.37
2023-04-26T06:45:48.338Z,15.44
2023-04-26T06:48:18.079Z,15.53
2023-04-26T06:50:46.454Z,15.58
2023-04-26T06:53:15.294Z,15.66
2023-04-26T06:55:43.660Z,15.71
2023-04-26T06:58:12.249Z,15.77
2023-04-26T07:00:40.721Z,15.77
2023-04-26T07:03:09.276Z,15.88
2023-04-26T07:05:41.069Z,15.94
2023-04-26T07:08:09.673Z,16.06
2023-04-26T07:10:38.301Z,16.16
2023-04-26T07:13:09.312Z,16.27
2023-04-26T07:15:38.025Z,16.35
2023-04-26T07:18:06.564Z,16.45
2023-04-26T07:20:35.056Z,16.53
2023-04-26T07:23:04.846Z,16.53
2023-04-26T07:25:33.230Z,16.48
2023-04-26T07:28:01.689Z,16.45
2023-04-26T07:30:32.555Z,16.36
2023-04-26T07:33:02.255Z,16.34
2023-04-26T07:35:30.873Z,16.41
2023-04-26T07:37:59.521Z,16.51
2023-04-26T07:40:29.890Z,16.62
2023-04-26T07:42:58.367Z,16.81
2023-04-26T07:45:27.016Z,16.90
2023-04-26T07:47:55.538Z,16.91
2023-04-26T07:50:25.292Z,16.90
2023-04-26T07:52:53.783Z,16.89
2023-04-26T07:55:22.401Z,16.87
2023-04-26T07:57:52.289Z,16.82
2023-04-26T08:00:22.467Z,16.80
2023-04-26T08:02:51.164Z,16.77
2023-04-26T08:05:20.355Z,16.76
2023-04-26T08:07:49.028Z,16.74
2023-04-26T08:10:17.683Z,16.74
2023-04-26T08:12:46.355Z,16.80
2023-04-26T08:15:16.349Z,16.88
2023-04-26T08:17:44.813Z,16.96
2023-04-26T08:20:14.307Z,17.04
2023-04-26T08:22:42.630Z,17.12
2023-04-26T08:25:12.348Z,17.15
2023-04-26T08:27:41.241Z,17.20
2023-04-26T08:30:11.079Z,17.24
2023-04-26T08:32:41.025Z,17.29
2023-04-26T08:35:10.811Z,17.39
2023-04-26T08:37:39.649Z,17.52
2023-04-26T08:40:10.736Z,17.60
2023-04-26T08:42:44.172Z,17.56
2023-04-26T08:45:13.247Z,17.61
2023-04-26T08:47:46.305Z,17.72
2023-04-26T08:50:17.053Z,17.81
2023-04-26T08:52:45.728Z,17.87
2023-04-26T08:55:16.438Z,17.85
2023-04-26T08:57:46.991Z,17.80
2023-04-26T09:00:17.442Z,17.69
2023-04-26T09:02:51.292Z,17.50
2023-04-26T09:05:24.529Z,17.41
2023-04-26T09:07:59.023Z,17.48
2023-04-26T09:10:28.254Z,17.62
2023-04-26T09:12:57.429Z,17.63
2023-04-26T09:15:27.660Z,17.61
2023-04-26T09:17:57.537Z,17.76
2023-04-26T09:20:27.906Z,17.93
2023-04-26T09:23:06.861Z,18.04
2023-04-26T09:25:36.220Z,18.09
2023-04-26T09:28:06.129Z,18.06
2023-04-26T09:30:40.830Z,18.01
2023-04-26T09:33:10.686Z,17.95
2023-04-26T09:35:40.942Z,17.87
2023-04-26T09:38:13.600Z,17.84
2023-04-26T09:40:44.617Z,17.79
2023-04-26T09:43:14.843Z,17.83
2023-04-26T09:45:50.591Z,17.89
2023-04-26T09:48:23.873Z,18.04
2023-04-26T09:50:54.588Z,18.22
2023-04-26T09:53:32.116Z,18.39
2023-04-26T09:56:09.408Z,18.49
2023-04-26T09:58:39.712Z,18.59
2023-04-26T10:01:10.118Z,18.66
2023-04-26T10:03:40.769Z,18.75
2023-04-26T10:06:09.793Z,18.89
2023-04-26T10:08:38.627Z,19.04
2023-04-26T10:11:10.508Z,19.18
2023-04-26T10:13:40.491Z,19.18
2023-04-26T10:16:10.234Z,19.19
2023-04-26T10:18:40.646Z,19.16
2023-04-26T10:21:16.229Z,19.12
2023-04-26T10:23:45.224Z,19.10
2023-04-26T10:26:51.686Z,19.09
2023-04-26T10:29:20.698Z,19.17
2023-04-26T10:32:16.420Z,19.21
2023-04-26T10:34:47.328Z,19.26
2023-04-26T10:37:18.232Z,19.30
2023-04-26T10:39:48.709Z,19.35
2023-04-26T10:42:27.584Z,19.37
2023-04-26T10:44:57.264Z,19.35
2023-04-26T10:47:32.519Z,19.29
2023-04-26T10:50:09.191Z,19.31
2023-04-26T10:52:39.298Z,19.41
2023-04-26T10:55:09.729Z,19.44
2023-04-26T10:57:54.340Z,19.48
2023-04-26T11:00:34.215Z,19.79
2023-04-26T11:03:09.593Z,20.29
2023-04-26T11:05:49.542Z,20.97
2023-04-26T11:08:20.622Z,21.45
2023-04-26T11:11:09.733Z,21.58
2023-04-26T11:13:41.412Z,21.44
2023-04-26T11:16:12.534Z,21.16
2023-04-26T11:18:43.028Z,20.82
2023-04-26T11:21:15.408Z,20.53
2023-04-26T11:23:43.903Z,20.30
2023-04-26T11:26:12.576Z,20.46
2023-04-26T11:28:41.207Z,20.67
2023-04-26T11:31:09.700Z,21.08
2023-04-26T11:33:38.143Z,21.58
2023-04-26T11:36:07.818Z,22.13
2023-04-26T11:38:39.177Z,22.78
2023-04-26T11:41:07.591Z,23.32
2023-04-26T11:43:37.628Z,23.80
2023-04-26T11:46:07.954Z,24.05
2023-04-26T11:48:38.502Z,24.04
2023-04-26T11:51:09.424Z,23.69
2023-04-26T11:53:40.738Z,23.13
2023-04-26T11:56:17.255Z,22.54
2023-04-26T11:58:48.090Z,22.13
2023-04-26T12:01:23.773Z,21.86
2023-04-26T12:03:53.946Z,21.69
2023-04-26T12:06:32.934Z,21.49
2023-04-26T12:09:06.227Z,21.40
2023-04-26T12:11:34.777Z,21.84
2023-04-26T12:14:04.037Z,22.51
2023-04-26T12:16:32.877Z,23.37
2023-04-26T12:19:01.370Z,24.27
2023-04-26T12:21:30.840Z,25.07
2023-04-26T12:23:59.749Z,25.76
2023-04-26T12:26:45.883Z,26.32
2023-04-26T12:29:14.392Z,26.75
2023-04-26T12:31:42.872Z,26.92
2023-04-26T12:34:11.450Z,26.99
2023-04-26T12:36:43.312Z,26.72
2023-04-26T12:39:13.514Z,26.10
2023-04-26T12:41:42.296Z,25.39
2023-04-26T12:44:14.431Z,24.69
2023-04-26T12:46:43.045Z,24.17
2023-04-26T12:49:12.701Z,23.71
2023-04-26T12:51:41.130Z,23.32
2023-04-26T12:54:09.610Z,22.94
2023-04-26T12:56:43.881Z,22.75
2023-04-26T12:59:13.921Z,22.74
2023-04-26T13:01:42.332Z,22.62
2023-04-26T13:04:11.418Z,22.48
2023-04-26T13:06:40.120Z,22.27
2023-04-26T13:09:09.138Z,22.05
2023-04-26T13:11:37.848Z,21.86
2023-04-26T13:14:07.607Z,21.73
2023-04-26T13:16:42.334Z,21.58
2023-04-26T13:19:10.904Z,21.42
2023-04-26T13:21:39.511Z,21.30
2023-04-26T13:24:08.609Z,21.22
2023-04-26T13:26:37.141Z,21.14
2023-04-26T13:29:05.663Z,21.09
2023-04-26T13:31:34.195Z,21.24
2023-04-26T13:34:07.088Z,21.50
2023-04-26T13:36:35.517Z,22.19
2023-04-26T13:39:05.152Z,23.27
2023-04-26T13:41:35.003Z,24.16
2023-04-26T13:44:04.690Z,24.48
2023-04-26T13:46:33.394Z,24.48
2023-04-26T13:49:01.832Z,24.24
2023-04-26T13:51:32.950Z,23.89
2023-04-26T13:54:01.476Z,23.70
2023-04-26T13:56:30.024Z,23.79
2023-04-26T13:58:58.441Z,24.30
2023-04-26T14:01:27.534Z,24.46
2023-04-26T14:03:56.430Z,24.44
2023-04-26T14:06:25.000Z,24.66
2023-04-26T14:08:54.914Z,24.86
2023-04-26T14:11:24.446Z,25.09
2023-04-26T14:13:56.116Z,25.75
2023-04-26T14:16:25.548Z,26.05
2023-04-26T14:18:54.259Z,26.00
2023-04-26T14:21:22.843Z,25.56
2023-04-26T14:23:51.356Z,25.09
2023-04-26T14:26:21.649Z,24.50
2023-04-26T14:28:50.096Z,23.90
2023-04-26T14:31:19.835Z,23.53
2023-04-26T14:33:48.633Z,23.12
2023-04-26T14:36:17.048Z,22.81
2023-04-26T14:38:47.463Z,22.50
2023-04-26T14:41:16.793Z,22.15
2023-04-26T14:43:47.983Z,21.76
2023-04-26T14:46:16.891Z,21.46
2023-04-26T14:48:45.748Z,21.31
2023-04-26T14:51:14.308Z,21.36
2023-04-26T14:53:42.782Z,21.45
2023-04-26T14:56:11.835Z,21.49
2023-04-26T14:58:40.222Z,21.46
2023-04-26T15:01:10.600Z,21.40
2023-04-26T15:03:39.675Z,21.33
2023-04-26T15:06:10.790Z,21.32
2023-04-26T15:08:39.240Z,21.36
2023-04-26T15:11:07.938Z,21.36
2023-04-26T15:13:36.539Z,21.24
2023-04-26T15:16:07.856Z,21.09
2023-04-26T15:18:37.894Z,20.94
2023-04-26T15:21:06.403Z,20.82
2023-04-26T15:23:34.836Z,20.79
2023-04-26T15:26:03.899Z,20.77
2023-04-26T15:28:32.873Z,20.77
2023-04-26T15:31:04.687Z,20.65
2023-04-26T15:33:33.470Z,20.60
2023-04-26T15:36:03.428Z,20.60
2023-04-26T15:38:32.126Z,20.62
2023-04-26T15:41:00.659Z,20.60
2023-04-26T15:43:29.354Z,20.53
2023-04-26T15:45:57.829Z,20.43
2023-04-26T15:48:27.176Z,20.35
2023-04-26T15:50:56.951Z,20.24
2023-04-26T15:53:27.087Z,20.18
2023-04-26T15:55:55.590Z,20.09
2023-04-26T15:58:24.336Z,20.02
2023-04-26T16:00:53.111Z,19.95
2023-04-26T16:03:21.857Z,19.86
2023-04-26T16:05:50.614Z,19.76
2023-04-26T16:08:38.795Z,19.71
2023-04-26T16:11:09.611Z,19.73
2023-04-26T16:13:38.030Z,19.79
2023-04-26T16:16:10.789Z,19.81
2023-04-26T16:18:40.260Z,19.77
2023-04-26T16:21:09.901Z,19.65
2023-04-26T16:23:39.358Z,19.51
2023-04-26T16:26:09.805Z,19.40
2023-04-26T16:28:38.493Z,19.35
2023-04-26T16:31:07.428Z,19.30
2023-04-26T16:33:35.996Z,19.26
2023-04-26T16:36:04.677Z,19.21
2023-04-26T16:38:33.078Z,19.17
2023-04-26T16:41:02.623Z,19.12
2023-04-26T16:43:33.821Z,19.06
2023-04-26T16:46:03.976Z,18.99
2023-04-26T16:48:33.354Z,18.93
2023-04-26T16:51:02.928Z,18.89
2023-04-26T16:53:33.528Z,18.82
2023-04-26T16:56:02.028Z,18.73
2023-04-26T16:58:31.828Z,18.65
2023-04-26T17:01:00.484Z,18.61
2023-04-26T17:03:29.241Z,18.58
2023-04-26T17:05:57.931Z,18.55
2023-04-26T17:08:27.387Z,18.48
2023-04-26T17:10:56.233Z,18.40
2023-04-26T17:13:29.403Z,18.31
2023-04-26T17:15:59.473Z,18.20
2023-04-26T17:18:27.964Z,18.12
2023-04-26T17:20:56.699Z,18.07
2023-04-26T17:23:26.026Z,18.00
2023-04-26T17:25:55.392Z,17.90
2023-04-26T17:28:24.395Z,17.81
2023-04-26T17:30:52.976Z,17.70
2023-04-26T17:33:26.485Z,17.61
2023-04-26T17:35:54.924Z,17.52
2023-04-26T17:38:24.412Z,17.44
2023-04-26T17:40:56.549Z,17.38
2023-04-26T17:43:26.457Z,17.33
2023-04-26T17:45:55.856Z,17.30
2023-04-26T17:48:26.410Z,17.26
2023-04-26T17:50:55.609Z,17.21
2023-04-26T17:53:26.027Z,17.19
2023-04-26T17:55:55.311Z,17.14
2023-04-26T17:58:25.229Z,17.10
2023-04-26T18:00:54.869Z,17.06
2023-04-26T18:03:23.790Z,17.03
2023-04-26T18:05:54.071Z,17.00
2023-04-26T18:08:22.903Z,16.95
2023-04-26T18:10:53.876Z,16.90
2023-04-26T18:13:22.775Z,16.86
2023-04-26T18:15:51.596Z,16.80
2023-04-26T18:18:20.579Z,16.77
2023-04-26T18:20:49.676Z,16.72
2023-04-26T18:23:21.938Z,16.67
2023-04-26T18:25:52.024Z,16.62
2023-04-26T18:28:20.894Z,16.57
2023-04-26T18:30:49.520Z,16.51
2023-04-26T18:33:18.373Z,16.45
2023-04-26T18:35:50.015Z,16.38
2023-04-26T18:38:20.473Z,16.33
2023-04-26T18:40:50.122Z,16.26
2023-04-26T18:43:19.411Z,16.21
2023-04-26T18:45:49.119Z,16.15
2023-04-26T18:48:19.045Z,16.11
2023-04-26T18:50:54.292Z,16.07
2023-04-26T18:53:25.735Z,16.03
2023-04-26T18:55:59.092Z,16.00
2023-04-26T18:58:29.672Z,15.95
2023-04-26T19:00:59.364Z,15.92
2023-04-26T19:03:29.440Z,15.89
2023-04-26T19:06:00.296Z,15.87
2023-04-26T19:08:30.904Z,15.83
2023-04-26T19:11:01.560Z,15.80
2023-04-26T19:13:30.708Z,15.77
2023-04-26T19:16:00.089Z,15.73
2023-04-26T19:18:29.098Z,15.72
2023-04-26T19:20:58.458Z,15.69
2023-04-26T19:23:30.765Z,15.66
2023-04-26T19:26:06.074Z,15.63
2023-04-26T19:28:36.384Z,15.63
2023-04-26T19:31:05.923Z,15.61
2023-04-26T19:33:36.770Z,15.58
2023-04-26T19:36:07.585Z,15.55
2023-04-26T19:38:38.600Z,15.53
2023-04-26T19:41:14.677Z,15.51
2023-04-26T19:43:44.227Z,15.48
2023-04-26T19:46:14.141Z,15.45
2023-04-26T19:48:43.619Z,15.43
2023-04-26T19:51:18.622Z,15.39
2023-04-26T19:53:50.601Z,15.38
2023-04-26T19:56:22.222Z,15.36
2023-04-26T19:58:52.236Z,15.33
2023-04-26T20:01:21.647Z,15.31
2023-04-26T20:04:00.463Z,15.26
2023-04-26T20:06:29.649Z,15.25
2023-04-26T20:09:02.083Z,15.21
2023-04-26T20:11:32.904Z,15.16
2023-04-26T20:14:01.823Z,15.11
2023-04-26T20:16:31.086Z,15.06
2023-04-26T20:19:00.762Z,15.02
2023-04-26T20:21:30.302Z,14.98
2023-04-26T20:24:03.000Z,14.96
2023-04-26T20:26:33.024Z,14.95
2023-04-26T20:29:02.365Z,14.95
2023-04-26T20:31:31.415Z,14.94
2023-04-26T20:34:00.714Z,14.93
2023-04-26T20:36:29.526Z,14.92
2023-04-26T20:38:59.734Z,14.90
2023-04-26T20:41:28.634Z,14.88
2023-04-26T20:43:58.103Z,14.86
2023-04-26T20:46:27.539Z,14.86
2023-04-26T20:48:56.545Z,14.85
2023-04-26T20:51:25.022Z,14.83
2023-04-26T20:53:53.913Z,14.83
2023-04-26T20:56:23.730Z,14.81
2023-04-26T20:58:52.238Z,14.80
2023-04-26T21:01:20.794Z,14.80
2023-04-26T21:03:49.378Z,14.82
2023-04-26T21:06:17.890Z,14.84
2023-04-26T21:08:46.329Z,14.85
2023-04-26T21:11:14.716Z,14.88
2023-04-26T21:13:45.794Z,14.89
2023-04-26T21:16:14.354Z,14.90
2023-04-26T21:18:42.912Z,14.91
2023-04-26T21:21:11.300Z,14.92
2023-04-26T21:23:39.713Z,14.92
2023-04-26T21:26:08.134Z,14.91
2023-04-26T21:28:36.674Z,14.89
2023-04-26T21:31:08.817Z,14.86
2023-04-26T21:33:37.234Z,14.81
2023-04-26T21:36:06.918Z,14.77
2023-04-26T21:38:35.326Z,14.73
2023-04-26T21:41:03.869Z,14.68
2023-04-26T21:43:32.443Z,14.63
2023-04-26T21:46:00.834Z,14.59
2023-04-26T21:48:30.683Z,14.56
2023-04-26T21:50:59.033Z,14.54
2023-04-26T21:53:27.392Z,14.53
2023-04-26T21:55:56.068Z,14.53
2023-04-26T21:58:24.697Z,14.53
2023-04-26T22:00:53.242Z,14.54
2023-04-26T22:03:22.045Z,14.54
2023-04-26T22:05:51.937Z,14.53
2023-04-26T22:08:20.381Z,14.55
2023-04-26T22:10:48.795Z,14.55
2023-04-26T22:13:17.321Z,14.56
2023-04-26T22:15:45.685Z,14.55
2023-04-26T22:18:14.117Z,14.56
2023-04-26T22:20:42.690Z,14.57
2023-04-26T22:23:12.526Z,14.58
2023-04-26T22:25:40.966Z,14.54
2023-04-26T22:28:09.383Z,14.52
2023-04-26T22:30:37.841Z,14.49
2023-04-26T22:33:07.071Z,14.47
2023-04-26T22:35:36.504Z,14.44
2023-04-26T22:38:04.977Z,14.45
2023-04-26T22:40:34.997Z,14.44
2023-04-26T22:43:03.630Z,14.43
2023-04-26T22:45:33.212Z,14.42
2023-04-26T22:48:01.725Z,14.41
2023-04-26T22:50:30.192Z,14.38
2023-04-26T22:52:58.588Z,14.36
2023-04-26T22:55:27.395Z,14.32
2023-04-26T22:57:57.226Z,14.30
2023-04-26T23:00:26.094Z,14.30
2023-04-26T23:02:54.621Z,14.30
2023-04-26T23:05:23.269Z,14.31
2023-04-26T23:07:51.831Z,14.32
2023-04-26T23:10:20.443Z,14.34
2023-04-26T23:12:50.790Z,14.35
2023-04-26T23:15:20.800Z,14.34
2023-04-26T23:17:49.353Z,14.36
2023-04-26T23:20:17.923Z,14.37
2023-04-26T23:22:46.340Z,14.38
2023-04-26T23:25:14.790Z,14.39
2023-04-26T23:27:43.565Z,14.39
2023-04-26T23:30:13.981Z,14.39
2023-04-26T23:32:43.798Z,14.39
2023-04-26T23:35:12.289Z,14.39
2023-04-26T23:37:40.955Z,14.39
2023-04-26T23:40:10.860Z,14.37
2023-04-26T23:42:39.325Z,14.38
2023-04-26T23:45:09.826Z,14.38
2023-04-26T23:47:38.345Z,14.38
2023-04-26T23:50:09.363Z,14.40
2023-04-26T23:52:37.770Z,14.42
2023-04-26T23:55:08.133Z,14.43
2023-04-26T23:57:37.214Z,14.43
